createdAt,value
2017-05-30T15:02:59.178Z,28.20
2017-05-30T15:05:27.465Z,28.20
2017-05-30T15:07:55.884Z,28.30
2017-05-30T15:10:24.194Z,28.40
2017-05-30T15:12:52.448Z,28.50
2017-05-30T15:15:20.710Z,28.60
2017-05-30T15:17:48.980Z,28.70
2017-05-30T15:20:17.234Z,28.70
2017-05-30T15:22:45.490Z,28.90
2017-05-30T15:25:13.767Z,29.20
2017-05-30T15:27:42.018Z,29.40
2017-05-30T15:30:10.273Z,29.60
2017-05-30T15:32:38.537Z,29.50
2017-05-30T15:35:06.781Z,29.50
2017-05-30T15:37:35.937Z,29.20
2017-05-30T15:40:04.211Z,29.00
2017-05-30T15:42:32.458Z,29.10
2017-05-30T15:45:00.709Z,28.80
2017-05-30T15:47:28.986Z,28.40
2017-05-30T15:49:57.237Z,28.30
2017-05-30T15:52:25.489Z,28.30
2017-05-30T15:54:53.757Z,28.40
2017-05-30T15:57:22.010Z,28.50
2017-05-30T15:59:50.262Z,28.70
2017-05-30T16:02:18.935Z,28.70
2017-05-30T16:04:47.183Z,28.50
2017-05-30T16:07:15.442Z,28.60
2017-05-30T16:09:43.713Z,28.50
2017-05-30T16:12:11.962Z,28.10
2017-05-30T16:14:40.214Z,28.00
2017-05-30T16:17:08.482Z,28.00
2017-05-30T16:19:36.730Z,28.00
2017-05-30T16:22:04.982Z,28.00
2017-05-30T16:24:33.253Z,28.00
2017-05-30T16:27:01.509Z,28.00
2017-05-30T16:29:29.758Z,27.90
2017-05-30T16:31:58.034Z,27.90
2017-05-30T16:34:26.285Z,27.90
2017-05-30T16:36:54.585Z,27.80
2017-05-30T16:39:23.082Z,27.80
2017-05-30T16:41:51.326Z,27.60
2017-05-30T16:44:19.581Z,27.60
2017-05-30T16:46:47.850Z,27.70
2017-05-30T16:49:16.103Z,27.70
2017-05-30T16:51:44.353Z,27.80
2017-05-30T16:54:12.625Z,27.60
2017-05-30T16:56:40.877Z,27.50
2017-05-30T16:59:09.125Z,27.30
2017-05-30T17:01:37.393Z,27.30
2017-05-30T17:04:05.642Z,27.20
2017-05-30T17:06:33.890Z,27.10
2017-05-30T17:09:02.162Z,27.00
2017-05-30T17:11:30.411Z,27.00
2017-05-30T17:13:58.659Z,27.00
2017-05-30T17:16:26.927Z,26.80
2017-05-30T17:18:55.173Z,26.50
2017-05-30T17:21:23.424Z,26.40
2017-05-30T17:23:51.700Z,26.10
2017-05-30T17:26:19.950Z,25.90
2017-05-30T17:28:48.198Z,25.80
2017-05-30T17:31:16.467Z,25.60
2017-05-30T17:33:44.714Z,25.50
2017-05-30T17:36:12.968Z,25.30
2017-05-30T17:38:41.239Z,25.00
2017-05-30T17:41:09.493Z,24.90
2017-05-30T17:43:37.826Z,24.80
2017-05-30T17:46:06.118Z,24.70
2017-05-30T17:48:34.363Z,24.60
2017-05-30T17:51:02.611Z,24.50
2017-05-30T17:53:30.882Z,24.40
2017-05-30T17:55:59.126Z,24.30
2017-05-30T17:58:27.369Z,24.30
2017-05-30T18:00:55.637Z,24.20
2017-05-30T18:03:23.890Z,24.20
2017-05-30T18:05:52.138Z,24.10
2017-05-30T18:08:20.421Z,24.10
2017-05-30T18:10:48.902Z,24.10
2017-05-30T18:13:17.150Z,24.10
2017-05-30T18:15:45.450Z,24.10
2017-05-30T18:18:13.700Z,24.10
2017-05-30T18:20:41.954Z,24.10
2017-05-30T18:23:10.226Z,24.10
2017-05-30T18:25:38.475Z,24.10
2017-05-30T18:28:06.725Z,24.10
2017-05-30T18:30:34.998Z,24.10
2017-05-30T18:33:03.246Z,24.00
2017-05-30T18:35:31.499Z,24.00
2017-05-30T18:37:59.769Z,23.90
2017-05-30T18:40:28.021Z,23.80
2017-05-30T18:42:56.270Z,23.80
2017-05-30T18:45:24.546Z,23.80
2017-05-30T18:47:52.806Z,23.70
2017-05-30T18:50:21.311Z,23.60
2017-05-30T18:52:49.583Z,23.50
2017-05-30T18:55:17.867Z,23.40
2017-05-30T18:57:46.158Z,23.30
2017-05-30T19:00:14.433Z,23.20
2017-05-30T19:02:42.685Z,23.10
2017-05-30T19:05:10.940Z,23.10
2017-05-30T19:07:39.451Z,23.00
2017-05-30T19:10:07.709Z,23.00
2017-05-30T19:12:35.966Z,23.00
2017-05-30T19:15:04.254Z,23.00
2017-05-30T19:17:32.510Z,23.00
2017-05-30T19:20:00.766Z,23.00
2017-05-30T19:22:29.080Z,23.00
2017-05-30T19:24:57.368Z,22.80
2017-05-30T19:27:25.627Z,22.80
2017-05-30T19:29:53.943Z,22.70
2017-05-30T19:32:22.239Z,22.60
2017-05-30T19:34:50.531Z,22.40
2017-05-30T19:37:20.178Z,22.30
2017-05-30T19:39:48.483Z,22.20
2017-05-30T19:42:16.738Z,22.20
2017-05-30T19:44:45.014Z,22.00
2017-05-30T19:47:13.274Z,22.00
2017-05-30T19:49:41.530Z,21.90
2017-05-30T19:52:09.815Z,21.90
2017-05-30T19:54:38.074Z,21.90
2017-05-30T19:57:06.334Z,21.80
2017-05-30T19:59:34.635Z,21.80
2017-05-30T20:02:02.890Z,21.80
2017-05-30T20:04:31.145Z,21.80
2017-05-30T20:06:59.421Z,21.70
2017-05-30T20:09:27.677Z,21.70
2017-05-30T20:11:55.931Z,21.50
2017-05-30T20:14:24.206Z,21.50
2017-05-30T20:16:52.461Z,21.40
2017-05-30T20:19:20.714Z,21.30
2017-05-30T20:21:49.036Z,21.20
2017-05-30T20:24:17.309Z,21.10
2017-05-30T20:26:45.649Z,21.00
2017-05-30T20:29:14.185Z,21.00
2017-05-30T20:31:42.443Z,20.90
2017-05-30T20:34:10.699Z,20.80
2017-05-30T20:36:38.975Z,20.70
2017-05-30T20:39:07.230Z,20.70
2017-05-30T20:41:35.486Z,20.70
2017-05-30T20:44:03.766Z,20.60
2017-05-30T20:46:32.030Z,20.60
2017-05-30T20:49:00.287Z,20.50
2017-05-30T20:51:28.618Z,20.40
2017-05-30T20:53:56.874Z,20.30
2017-05-30T20:56:25.125Z,20.10
2017-05-30T20:58:53.405Z,19.90
2017-05-30T21:01:21.679Z,19.70
2017-05-30T21:03:49.947Z,19.50
2017-05-30T21:06:18.245Z,19.40
2017-05-30T21:08:46.499Z,19.30
2017-05-30T21:11:14.971Z,19.20
2017-05-30T21:13:43.258Z,19.20
2017-05-30T21:16:11.514Z,19.20
2017-05-30T21:18:39.766Z,19.20
2017-05-30T21:21:08.042Z,19.20
2017-05-30T21:23:36.304Z,19.20
2017-05-30T21:26:04.557Z,19.20
2017-05-30T21:28:32.833Z,19.20
2017-05-30T21:31:01.086Z,19.20
2017-05-30T21:33:29.346Z,19.20
2017-05-30T21:35:57.625Z,19.20
2017-05-30T21:38:25.882Z,19.20
2017-05-30T21:40:54.137Z,19.10
2017-05-30T21:43:22.415Z,19.00
2017-05-30T21:45:50.672Z,18.90
2017-05-30T21:48:19.209Z,18.80
2017-05-30T21:50:47.485Z,18.60
2017-05-30T21:53:15.737Z,18.50
2017-05-30T21:55:44.090Z,18.40
2017-05-30T21:58:12.365Z,18.50
2017-05-30T22:00:40.617Z,18.50
2017-05-30T22:03:08.878Z,18.40
2017-05-30T22:05:37.157Z,18.40
2017-05-30T22:08:05.417Z,18.40
2017-05-30T22:10:33.674Z,18.40
2017-05-30T22:13:01.954Z,18.40
2017-05-30T22:15:30.205Z,18.40
2017-05-30T22:17:58.461Z,18.40
2017-05-30T22:20:27.054Z,18.30
2017-05-30T22:22:55.305Z,18.30
2017-05-30T22:25:23.562Z,18.30
2017-05-30T22:27:51.838Z,18.30
2017-05-30T22:30:20.091Z,18.30
2017-05-30T22:32:48.345Z,18.20
2017-05-30T22:35:16.617Z,18.20
2017-05-30T22:37:44.869Z,18.10
2017-05-30T22:40:13.121Z,18.10
2017-05-30T22:42:41.397Z,18.00
2017-05-30T22:45:09.649Z,18.00
2017-05-30T22:47:37.901Z,18.00
2017-05-30T22:50:06.174Z,17.90
2017-05-30T22:52:34.428Z,17.80
2017-05-30T22:55:02.686Z,17.70
2017-05-30T22:57:30.961Z,17.70
2017-05-30T22:59:59.258Z,17.60
2017-05-30T23:02:27.518Z,17.60
2017-05-30T23:04:55.811Z,17.60
2017-05-30T23:07:24.066Z,17.60
2017-05-30T23:09:52.326Z,17.60
2017-05-30T23:12:20.942Z,17.50
2017-05-30T23:14:49.198Z,17.50
2017-05-30T23:17:17.457Z,17.40
2017-05-30T23:19:45.730Z,17.30
2017-05-30T23:22:13.985Z,17.30
2017-05-30T23:24:42.237Z,17.30
2017-05-30T23:27:10.514Z,17.30
2017-05-30T23:29:39.207Z,17.30
2017-05-30T23:32:07.465Z,17.20
2017-05-30T23:34:35.737Z,17.20
2017-05-30T23:37:03.990Z,17.20
2017-05-30T23:39:32.246Z,17.10
2017-05-30T23:42:00.529Z,17.20
2017-05-30T23:44:28.782Z,17.20
2017-05-30T23:46:57.034Z,17.20
2017-05-30T23:49:25.329Z,17.20
2017-05-30T23:51:53.581Z,17.10
2017-05-30T23:54:21.946Z,17.00
2017-05-30T23:56:50.217Z,17.00
2017-05-30T23:59:18.470Z,16.90
